Time;durP1;ratioP1;P1;durP2;ratioP2;P2;SDS_P1;SDS_P2;PMS_P1;PMS_P2;Temp;Humidity;BMP_temperature;BMP_pressure;BME280_temperature;BME280_humidity;BME280_pressure;Samples;Min_cycle;Max_cycle;Signal;HPM_P1;HPM_P2
2023/03/27 00:00:57;;;;;;;10.63;2.33;;;2.70;99.90;;;;;;4990608;28;20388;-83
2023/03/27 00:03:24;;;;;;;7.43;2.00;;;2.60;99.90;;;;;;4991440;28;20044;-82
2023/03/27 00:06:05;;;;;;;6.40;2.20;;;2.60;99.90;;;;;;4987918;28;20033;-83
2023/03/27 00:08:32;;;;;;;9.10;2.63;;;2.60;99.90;;;;;;5004584;28;20049;-83
2023/03/27 00:10:59;;;;;;;7.17;2.50;;;2.50;99.90;;;;;;4980019;28;20303;-82
2023/03/27 00:13:26;;;;;;;8.57;2.30;;;2.50;99.90;;;;;;4969194;28;20104;-82
2023/03/27 00:15:56;;;;;;;9.67;2.23;;;2.50;99.90;;;;;;4962342;28;20072;-80
2023/03/27 00:18:23;;;;;;;7.50;2.27;;;2.50;99.90;;;;;;4975296;28;20421;-82
2023/03/27 00:20:50;;;;;;;7.70;2.53;;;2.50;99.90;;;;;;4994947;28;20038;-83
2023/03/27 00:23:18;;;;;;;6.80;2.23;;;2.50;99.90;;;;;;4998185;28;20042;-82
2023/03/27 00:25:48;;;;;;;9.10;2.13;;;2.40;99.90;;;;;;4993822;28;20077;-82
2023/03/27 00:28:14;;;;;;;5.77;2.43;;;2.40;99.90;;;;;;4994049;28;20486;-82
2023/03/27 00:30:42;;;;;;;10.93;2.10;;;2.40;99.90;;;;;;4996086;28;20075;-82
2023/03/27 00:33:11;;;;;;;7.47;2.13;;;2.40;99.90;;;;;;5012833;28;20068;-81
2023/03/27 00:35:37;;;;;;;10.97;2.20;;;2.40;99.90;;;;;;4995400;28;20048;-82
2023/03/27 00:38:02;;;;;;;8.33;2.50;;;2.40;99.90;;;;;;5003238;28;20318;-82
2023/03/27 00:40:28;;;;;;;5.93;1.93;;;2.40;99.90;;;;;;4976010;28;20108;-82
2023/03/27 00:42:56;;;;;;;9.70;2.30;;;2.40;99.90;;;;;;4985852;28;20061;-82
2023/03/27 00:45:32;;;;;;;6.30;2.33;;;2.40;99.90;;;;;;5001251;28;20044;-82
2023/03/27 00:48:03;;;;;;;9.30;2.13;;;2.40;99.90;;;;;;4998590;28;20039;-82
2023/03/27 00:50:33;;;;;;;5.38;1.83;;;2.50;99.90;;;;;;4997082;28;20042;-82
2023/03/27 00:53:05;;;;;;;5.93;1.80;;;2.50;99.90;;;;;;4999875;28;20103;-82
2023/03/27 00:55:35;;;;;;;7.90;2.47;;;2.50;99.90;;;;;;5005803;28;20038;-81
2023/03/27 00:58:06;;;;;;;10.73;2.10;;;2.50;99.90;;;;;;5009153;28;20460;-83
2023/03/27 01:00:32;;;;;;;11.30;2.30;;;2.50;99.90;;;;;;4994356;28;20082;-82
2023/03/27 01:03:01;;;;;;;12.43;2.23;;;2.50;99.90;;;;;;5000649;28;20049;-82
2023/03/27 01:05:28;;;;;;;11.00;2.10;;;2.50;99.90;;;;;;5014774;28;20057;-83
2023/03/27 01:07:55;;;;;;;8.30;1.80;;;2.50;99.90;;;;;;5004562;28;20665;-83
2023/03/27 01:10:23;;;;;;;6.47;2.07;;;2.40;99.90;;;;;;4962621;28;20041;-83
2023/03/27 01:13:21;;;;;;;9.57;2.20;;;2.50;99.90;;;;;;4990937;28;20052;-83
2023/03/27 01:15:52;;;;;;;6.13;1.97;;;2.40;99.90;;;;;;5000937;28;20046;-83
2023/03/27 01:18:27;;;;;;;8.43;3.05;;;2.40;99.90;;;;;;5009973;28;20045;-82
2023/03/27 01:21:14;;;;;;;8.70;2.17;;;2.30;99.90;;;;;;4999612;28;20408;-82
2023/03/27 01:24:19;;;;;;;7.60;2.20;;;2.30;99.90;;;;;;4982355;28;20033;-82
2023/03/27 01:27:25;;;;;;;10.10;2.40;;;2.20;99.90;;;;;;4997693;28;20143;-83
2023/03/27 01:30:17;;;;;;;5.87;1.70;;;2.20;99.90;;;;;;4999545;28;20356;-82
2023/03/27 01:33:07;;;;;;;9.85;2.28;;;2.20;99.90;;;;;;5011649;28;20050;-82
2023/03/27 01:36:09;;;;;;;7.57;1.80;;;2.20;99.90;;;;;;4998109;28;20073;-83
2023/03/27 01:38:38;;;;;;;6.43;2.10;;;2.20;99.90;;;;;;4999596;28;20081;-82
2023/03/27 01:41:12;;;;;;;6.23;2.03;;;2.20;99.90;;;;;;4994642;28;20045;-83
2023/03/27 01:43:45;;;;;;;7.53;2.97;;;2.20;99.90;;;;;;4990354;28;20153;-83
2023/03/27 01:46:56;;;;;;;5.97;1.83;;;2.20;99.90;;;;;;5007004;28;20041;-83
2023/03/27 01:49:30;;;;;;;10.73;2.80;;;2.20;99.90;;;;;;4973837;28;20131;-83
2023/03/27 01:52:00;;;;;;;6.23;1.73;;;2.20;99.90;;;;;;4996419;28;20350;-83
2023/03/27 01:54:53;;;;;;;6.03;1.73;;;2.20;99.90;;;;;;5007861;28;20757;-82
2023/03/27 01:57:24;;;;;;;8.37;2.07;;;2.20;99.90;;;;;;4993275;28;20042;-82
2023/03/27 02:00:13;;;;;;;7.73;1.87;;;2.20;99.90;;;;;;5010534;28;20058;-82
2023/03/27 02:02:41;;;;;;;9.90;2.53;;;2.20;99.90;;;;;;5006377;28;20052;-82
2023/03/27 02:05:35;;;;;;;6.47;1.77;;;2.20;99.90;;;;;;5007818;28;20169;-82
2023/03/27 02:08:49;;;;;;;7.57;2.40;;;2.20;99.90;;;;;;5007167;28;20088;-82
2023/03/27 02:11:15;;;;;;;5.30;1.67;;;2.20;99.90;;;;;;4999746;28;20054;-82
2023/03/27 02:13:52;;;;;;;5.57;1.73;;;2.20;99.90;;;;;;4987848;28;20485;-82
2023/03/27 02:16:22;;;;;;;7.40;1.90;;;2.20;99.90;;;;;;5013766;28;20046;-82
2023/03/27 02:19:00;;;;;;;8.53;2.23;;;2.20;99.90;;;;;;4991679;28;20060;-82
2023/03/27 02:21:26;;;;;;;6.80;1.97;;;2.20;99.90;;;;;;4996750;28;20045;-82
2023/03/27 02:23:52;;;;;;;5.17;1.80;;;2.20;99.90;;;;;;4983306;28;20041;-83
2023/03/27 02:26:18;;;;;;;5.20;1.83;;;2.10;99.90;;;;;;4989606;28;20056;-82
2023/03/27 02:29:12;;;;;;;6.43;1.67;;;2.10;99.90;;;;;;4993256;28;20136;-82
2023/03/27 02:32:18;;;;;;;5.20;1.70;;;2.10;99.90;;;;;;4953288;28;20081;-82
2023/03/27 02:35:11;;;;;;;6.60;1.40;;;2.10;99.90;;;;;;4979973;28;20059;-82
2023/03/27 02:37:37;;;;;;;7.07;1.67;;;2.10;99.90;;;;;;4986126;28;20076;-82
2023/03/27 02:40:18;;;;;;;10.47;1.97;;;2.00;99.90;;;;;;4997702;28;20136;-82
2023/03/27 02:43:06;;;;;;;12.53;2.00;;;2.00;99.90;;;;;;4999544;28;20077;-80
2023/03/27 02:45:37;;;;;;;6.43;1.80;;;2.00;99.90;;;;;;5009445;28;20052;-81
2023/03/27 02:48:09;;;;;;;5.47;2.03;;;2.00;99.90;;;;;;4996579;28;20100;-81
2023/03/27 02:50:53;;;;;;;4.43;1.40;;;2.00;99.90;;;;;;5006983;28;20479;-82
2023/03/27 02:53:22;;;;;;;7.17;1.70;;;2.00;99.90;;;;;;4995670;28;20393;-82
2023/03/27 02:55:56;;;;;;;5.00;1.50;;;2.00;99.90;;;;;;5002895;28;20041;-82
2023/03/27 02:58:31;;;;;;;8.47;1.93;;;2.00;99.90;;;;;;4984397;28;20116;-81
2023/03/27 03:00:59;;;;;;;7.60;2.00;;;1.90;99.90;;;;;;4987139;28;20048;-81
2023/03/27 03:03:52;;;;;;;9.10;1.80;;;2.00;99.90;;;;;;4984205;28;20490;-81
2023/03/27 03:06:19;;;;;;;8.63;1.70;;;2.10;99.90;;;;;;5015102;28;20053;-83
2023/03/27 03:08:45;;;;;;;5.87;1.70;;;2.10;99.90;;;;;;4983077;28;20069;-83
2023/03/27 03:11:13;;;;;;;8.07;1.60;;;2.20;99.90;;;;;;4990505;28;21073;-83
2023/03/27 03:13:40;;;;;;;5.93;1.53;;;2.20;99.90;;;;;;4987524;28;20103;-82
2023/03/27 03:16:07;;;;;;;8.47;1.83;;;2.20;99.90;;;;;;4976923;28;20090;-83
2023/03/27 03:18:33;;;;;;;10.00;2.00;;;2.20;99.90;;;;;;4995950;28;20501;-83
2023/03/27 03:20:59;;;;;;;9.90;2.13;;;2.20;99.90;;;;;;4989256;28;20037;-83
2023/03/27 03:23:25;;;;;;;9.70;2.07;;;2.20;99.90;;;;;;4995212;28;20127;-82
2023/03/27 03:25:55;;;;;;;8.27;1.90;;;2.20;99.90;;;;;;5014072;28;20393;-82
2023/03/27 03:28:21;;;;;;;6.47;2.10;;;2.20;99.90;;;;;;4989895;28;20076;-82
2023/03/27 03:30:49;;;;;;;8.80;2.33;;;2.20;99.90;;;;;;4973540;28;20277;-82
2023/03/27 03:33:20;;;;;;;5.50;1.90;;;2.10;99.90;;;;;;5001847;28;20038;-82
2023/03/27 03:35:49;;;;;;;6.30;1.85;;;2.10;99.90;;;;;;5011587;28;20046;-82
2023/03/27 03:38:25;;;;;;;10.33;2.10;;;2.10;99.90;;;;;;4985685;28;20588;-83
2023/03/27 03:40:52;;;;;;;8.67;1.80;;;2.10;99.90;;;;;;4975137;28;20096;-83
2023/03/27 03:43:29;;;;;;;6.80;1.67;;;2.10;99.90;;;;;;4975176;28;20089;-83
2023/03/27 03:46:06;;;;;;;6.63;1.80;;;2.10;99.90;;;;;;4976979;28;20458;-82
2023/03/27 03:48:32;;;;;;;8.03;2.13;;;2.00;99.90;;;;;;4993053;28;20082;-83
2023/03/27 03:51:11;;;;;;;5.83;1.63;;;2.00;99.90;;;;;;4995323;28;20076;-83
2023/03/27 03:53:43;;;;;;;;;;;2.00;99.90;;;;;;5011375;28;20442;-83
2023/03/27 03:56:12;;;;;;;7.23;2.10;;;2.00;99.90;;;;;;4993473;28;19917;-83
2023/03/27 03:58:38;;;;;;;7.90;1.83;;;1.90;99.90;;;;;;4988344;28;20544;-83
2023/03/27 04:01:07;;;;;;;7.83;2.10;;;1.90;99.90;;;;;;4987413;28;20118;-82
2023/03/27 04:03:33;;;;;;;4.37;1.53;;;1.90;99.90;;;;;;4996880;28;20042;-82
2023/03/27 04:06:07;;;;;;;6.70;1.80;;;1.80;99.90;;;;;;4971012;28;20516;-82
2023/03/27 04:08:43;;;;;;;12.97;2.87;;;1.80;99.90;;;;;;4994598;28;20123;-82
2023/03/27 04:11:20;;;;;;;8.50;2.00;;;1.80;99.90;;;;;;4991376;28;20497;-83
2023/03/27 04:13:49;;;;;;;8.87;2.20;;;1.70;99.90;;;;;;4988864;28;20077;-83
2023/03/27 04:16:18;;;;;;;6.73;2.07;;;1.70;99.90;;;;;;4995413;28;20089;-82
2023/03/27 04:18:44;;;;;;;9.20;2.30;;;1.60;99.90;;;;;;4994017;28;20103;-82
2023/03/27 04:21:23;;;;;;;9.57;1.90;;;1.60;99.90;;;;;;4978466;28;20058;-83
2023/03/27 04:23:51;;;;;;;6.23;1.83;;;1.60;99.90;;;;;;4985558;28;20042;-83
2023/03/27 04:26:17;;;;;;;6.47;2.40;;;1.60;99.90;;;;;;5007787;28;20120;-83
2023/03/27 04:28:43;;;;;;;7.93;2.53;;;1.60;99.90;;;;;;4991422;28;20053;-83
2023/03/27 04:31:13;;;;;;;8.87;2.07;;;1.60;99.90;;;;;;4991700;28;20057;-83
2023/03/27 04:33:45;;;;;;;9.80;2.17;;;1.60;99.90;;;;;;4978208;28;20054;-83
2023/03/27 04:36:17;;;;;;;10.13;2.83;;;1.70;99.90;;;;;;4968013;28;20378;-82
2023/03/27 04:38:49;;;;;;;6.87;2.00;;;1.70;99.90;;;;;;4988531;28;20054;-83
2023/03/27 04:41:16;;;;;;;7.20;2.50;;;1.80;99.90;;;;;;4978914;28;20037;-81
2023/03/27 04:43:45;;;;;;;10.03;2.57;;;1.80;99.90;;;;;;4993421;28;20033;-82
2023/03/27 04:46:16;;;;;;;6.97;2.53;;;1.80;99.90;;;;;;4998191;28;20038;-83
2023/03/27 04:48:57;;;;;;;6.47;2.10;;;1.90;99.90;;;;;;4985931;28;20034;-83
2023/03/27 04:51:40;;;;;;;8.97;2.00;;;1.90;99.90;;;;;;5005085;28;20093;-83
2023/03/27 04:54:21;;;;;;;6.43;2.00;;;1.90;99.90;;;;;;5005036;28;20040;-82
2023/03/27 04:56:51;;;;;;;6.60;1.98;;;1.90;99.90;;;;;;5006849;28;20458;-82
2023/03/27 04:59:17;;;;;;;7.57;2.33;;;1.90;99.90;;;;;;4985549;28;20116;-82
2023/03/27 05:01:45;;;;;;;8.13;2.50;;;1.90;99.90;;;;;;4988318;28;20117;-82
2023/03/27 05:04:16;;;;;;;6.07;2.13;;;1.90;99.90;;;;;;5008111;28;20468;-83
2023/03/27 05:07:01;;;;;;;;;;;;;;;;;;;;;
2023/03/27 05:10:05;;;;;;;7.23;2.10;;;1.90;99.90;;;;;;4974103;28;20057;-81
2023/03/27 05:13:05;;;;;;;9.63;2.13;;;1.90;99.90;;;;;;5005325;28;20160;-83
2023/03/27 05:18:51;;;;;;;8.93;2.30;;;1.90;99.90;;;;;;4931871;29;20043;-83
2023/03/27 05:22:10;;;;;;;7.53;2.03;;;1.80;99.90;;;;;;4922540;28;20043;-83
2023/03/27 05:25:22;;;;;;;8.33;2.43;;;1.90;99.90;;;;;;4964924;28;20049;-83
2023/03/27 05:27:49;;;;;;;12.60;2.17;;;1.90;99.90;;;;;;4935047;28;20129;-83
2023/03/27 05:30:25;;;;;;;8.00;2.17;;;1.90;99.90;;;;;;4956535;28;20062;-82
2023/03/27 05:32:52;;;;;;;10.50;2.10;;;2.00;99.90;;;;;;4984839;28;20053;-82
2023/03/27 05:35:21;;;;;;;8.50;2.53;;;2.00;99.90;;;;;;4971353;28;20079;-82
2023/03/27 05:37:48;;;;;;;6.67;2.10;;;2.00;99.90;;;;;;4990111;28;20485;-83
2023/03/27 05:40:21;;;;;;;14.87;3.03;;;2.10;99.90;;;;;;4996072;28;20160;-82
2023/03/27 05:42:59;;;;;;;10.00;2.07;;;2.10;99.90;;;;;;4989156;28;20050;-82
2023/03/27 05:45:25;;;;;;;7.87;2.00;;;2.10;99.90;;;;;;5006539;28;20057;-83
2023/03/27 05:47:53;;;;;;;12.53;2.60;;;2.10;99.90;;;;;;4995838;28;20073;-82
2023/03/27 05:50:22;;;;;;;10.17;2.73;;;2.10;99.90;;;;;;4980895;28;20056;-81
2023/03/27 05:52:56;;;;;;;10.13;2.10;;;2.20;99.90;;;;;;5006165;28;20493;-82
2023/03/27 05:55:24;;;;;;;6.30;1.97;;;2.20;99.90;;;;;;4993361;28;20050;-82
2023/03/27 05:57:50;;;;;;;6.93;2.47;;;2.20;99.90;;;;;;4980548;28;20057;-82
2023/03/27 06:00:26;;;;;;;9.07;2.37;;;2.20;99.90;;;;;;4977742;28;20042;-83
2023/03/27 06:02:56;;;;;;;5.57;2.00;;;2.20;99.90;;;;;;4999749;28;20445;-82
2023/03/27 06:05:26;;;;;;;9.27;2.33;;;2.30;99.90;;;;;;4995348;28;20038;-82
2023/03/27 06:07:52;;;;;;;4.80;2.20;;;2.30;99.90;;;;;;5011623;28;20046;-81
2023/03/27 06:10:21;;;;;;;4.63;1.70;;;2.40;99.90;;;;;;4994724;28;20596;-82
2023/03/27 06:12:47;;;;;;;7.63;2.23;;;2.40;99.90;;;;;;4994499;28;20042;-82
2023/03/27 06:15:14;;;;;;;6.13;1.77;;;2.50;99.90;;;;;;4997045;28;20452;-82
2023/03/27 06:17:41;;;;;;;6.50;1.70;;;2.60;99.90;;;;;;4995291;28;20054;-80
2023/03/27 06:20:13;;;;;;;6.00;1.60;;;2.60;99.90;;;;;;4978130;28;20029;-81
2023/03/27 06:22:47;;;;;;;6.88;2.10;;;2.70;99.90;;;;;;4995464;28;20030;-81
2023/03/27 06:25:14;;;;;;;5.93;1.40;;;2.70;99.90;;;;;;4976583;28;20041;-83
2023/03/27 06:27:42;;;;;;;4.33;1.20;;;2.70;99.90;;;;;;4996564;28;20512;-83
2023/03/27 06:30:09;;;;;;;5.07;1.40;;;2.90;99.90;;;;;;4983721;28;20145;-82
2023/03/27 06:32:36;;;;;;;7.60;1.70;;;2.90;99.90;;;;;;4996163;28;20061;-82
2023/03/27 06:35:02;;;;;;;5.03;1.33;;;3.00;99.90;;;;;;4997322;28;20034;-82
2023/03/27 06:37:32;;;;;;;6.43;1.57;;;3.00;99.90;;;;;;4981511;28;20052;-82
2023/03/27 06:39:59;;;;;;;4.40;1.23;;;3.10;99.90;;;;;;4998090;28;20085;-83
2023/03/27 06:42:25;;;;;;;5.60;1.53;;;3.10;99.90;;;;;;4967905;28;20038;-82
2023/03/27 06:44:50;;;;;;;5.97;1.50;;;3.20;99.90;;;;;;4980108;28;20041;-83
2023/03/27 06:47:16;;;;;;;5.20;1.30;;;3.30;99.90;;;;;;4995247;28;20065;-82
2023/03/27 06:49:46;;;;;;;3.80;1.13;;;3.30;99.90;;;;;;4979998;28;20053;-83
2023/03/27 06:52:13;;;;;;;13.10;1.43;;;3.40;99.90;;;;;;4983748;28;20131;-81
2023/03/27 06:54:38;;;;;;;8.17;1.47;;;3.40;99.90;;;;;;4985845;28;20065;-81
2023/03/27 06:57:05;;;;;;;4.23;1.50;;;3.50;99.90;;;;;;4979126;28;20139;-81
2023/03/27 06:59:31;;;;;;;3.60;1.13;;;3.60;99.90;;;;;;4995747;28;20117;-82
2023/03/27 07:01:56;;;;;;;5.60;1.20;;;3.70;99.90;;;;;;5001481;28;20434;-81
2023/03/27 07:04:22;;;;;;;5.07;1.10;;;3.70;99.90;;;;;;4998372;28;20514;-82
2023/03/27 07:06:49;;;;;;;2.37;1.00;;;3.80;99.90;;;;;;4998810;28;20044;-81
2023/03/27 07:09:15;;;;;;;4.83;1.33;;;3.90;99.90;;;;;;4983035;28;20061;-81
2023/03/27 07:11:40;;;;;;;3.73;0.97;;;4.00;99.90;;;;;;4980156;28;20049;-82
2023/03/27 07:14:09;;;;;;;3.33;1.00;;;4.00;99.90;;;;;;4994144;28;20655;-82
2023/03/27 07:16:37;;;;;;;9.50;1.77;;;4.10;99.90;;;;;;4997004;28;20104;-84
2023/03/27 07:19:04;;;;;;;5.10;1.17;;;4.10;99.90;;;;;;4962856;28;20053;-83
2023/03/27 07:21:30;;;;;;;2.93;1.10;;;4.20;99.90;;;;;;4979899;28;20382;-82
2023/03/27 07:23:58;;;;;;;5.10;1.40;;;4.20;99.90;;;;;;4998151;28;20045;-82
2023/03/27 07:26:24;;;;;;;4.43;1.40;;;4.30;99.90;;;;;;4998763;28;20034;-83
2023/03/27 07:28:50;;;;;;;8.33;1.50;;;4.30;99.90;;;;;;4995690;28;20634;-82
2023/03/27 07:31:17;;;;;;;5.60;1.33;;;4.30;99.90;;;;;;4981237;28;20053;-82
2023/03/27 07:33:43;;;;;;;5.73;1.30;;;4.40;99.90;;;;;;4996294;28;20037;-81
2023/03/27 07:36:09;;;;;;;5.43;1.70;;;4.40;99.90;;;;;;4975681;28;20100;-81
2023/03/27 07:38:34;;;;;;;5.07;1.30;;;4.50;99.90;;;;;;4981579;28;20053;-83
2023/03/27 07:41:05;;;;;;;6.73;1.57;;;4.50;99.90;;;;;;4993731;28;20053;-83
2023/03/27 07:43:33;;;;;;;5.07;1.40;;;4.60;99.90;;;;;;4964427;28;20077;-82
2023/03/27 07:46:01;;;;;;;8.17;1.53;;;4.60;99.90;;;;;;4966827;28;20049;-82
2023/03/27 07:48:28;;;;;;;5.03;1.70;;;4.70;99.90;;;;;;4977366;28;20294;-82
2023/03/27 07:51:01;;;;;;;5.77;1.40;;;4.80;99.90;;;;;;4980116;28;20049;-83
2023/03/27 07:53:28;;;;;;;4.37;1.30;;;4.90;99.90;;;;;;4998039;28;20054;-82
2023/03/27 07:55:57;;;;;;;4.63;1.60;;;5.00;99.90;;;;;;4981859;28;20103;-82
2023/03/27 07:58:23;;;;;;;5.27;1.40;;;5.00;99.90;;;;;;4963615;28;20355;-81
2023/03/27 08:00:51;;;;;;;10.30;1.90;;;5.20;99.90;;;;;;4998048;28;20046;-83
2023/03/27 08:03:19;;;;;;;4.70;1.57;;;5.30;99.90;;;;;;4995867;28;20139;-83
2023/03/27 08:05:52;;;;;;;8.87;1.67;;;5.40;99.90;;;;;;4978375;28;20030;-83
2023/03/27 08:08:18;;;;;;;7.20;1.80;;;5.60;99.90;;;;;;4979400;28;20037;-83
2023/03/27 08:10:45;;;;;;;8.77;2.10;;;5.70;99.90;;;;;;4982738;28;20108;-82
2023/03/27 08:13:11;;;;;;;11.63;2.17;;;5.90;99.90;;;;;;4997272;28;20605;-84
2023/03/27 08:15:37;;;;;;;4.67;1.60;;;6.10;99.90;;;;;;4979975;28;20052;-82
2023/03/27 08:18:03;;;;;;;7.70;1.83;;;6.00;99.90;;;;;;4983024;28;20121;-82
2023/03/27 08:20:29;;;;;;;5.03;1.93;;;5.80;99.90;;;;;;4975550;28;20042;-82
2023/03/27 08:22:55;;;;;;;5.53;1.70;;;5.90;99.90;;;;;;4979114;28;20117;-81
2023/03/27 08:25:21;;;;;;;5.77;1.43;;;5.90;99.90;;;;;;4993681;28;20503;-82
2023/03/27 08:27:47;;;;;;;6.37;1.40;;;5.80;99.90;;;;;;4980931;28;20050;-82
2023/03/27 08:30:13;;;;;;;3.40;1.37;;;5.80;99.90;;;;;;4977566;28;20042;-81
2023/03/27 08:32:40;;;;;;;3.73;1.60;;;5.70;99.90;;;;;;4990736;28;20038;-81
2023/03/27 08:35:06;;;;;;;7.90;1.50;;;5.60;99.90;;;;;;5013341;28;20046;-84
2023/03/27 08:37:33;;;;;;;3.40;1.20;;;5.60;99.90;;;;;;4994320;28;20048;-83
2023/03/27 08:40:00;;;;;;;4.00;1.20;;;5.70;99.90;;;;;;4980114;28;20096;-80
2023/03/27 08:42:38;;;;;;;5.50;1.30;;;5.80;99.90;;;;;;4981689;28;20069;-81
2023/03/27 08:45:48;;;;;;;2.73;1.20;;;5.80;99.90;;;;;;5013880;28;20054;-82
2023/03/27 08:48:20;;;;;;;2.63;1.13;;;5.70;99.90;;;;;;4901383;29;20099;-82
2023/03/27 08:50:53;;;;;;;6.37;1.40;;;5.60;99.90;;;;;;4986605;28;20108;-82
2023/03/27 08:53:31;;;;;;;8.80;1.50;;;5.60;99.90;;;;;;4994358;28;20034;-83
2023/03/27 08:55:57;;;;;;;7.37;1.43;;;5.70;99.90;;;;;;4979226;28;20466;-84
2023/03/27 08:58:23;;;;;;;6.40;1.47;;;5.90;99.90;;;;;;4995499;28;20069;-81
2023/03/27 09:01:26;;;;;;;6.80;1.53;;;6.10;99.90;;;;;;4975554;28;20057;-83
2023/03/27 09:04:31;;;;;;;3.37;1.20;;;6.10;99.90;;;;;;4939657;28;20755;-82
2023/03/27 09:07:09;;;;;;;5.90;1.50;;;6.20;99.90;;;;;;4975264;28;20065;-81
2023/03/27 09:10:04;;;;;;;5.00;1.23;;;6.30;99.90;;;;;;4981175;28;20126;-84
2023/03/27 09:12:51;;;;;;;7.37;1.83;;;6.40;99.90;;;;;;4946253;28;20055;-83
2023/03/27 09:15:24;;;;;;;4.97;1.60;;;6.50;99.90;;;;;;4997152;28;20447;-81
2023/03/27 09:18:09;;;;;;;4.37;1.47;;;6.60;99.90;;;;;;5001824;28;20042;-82
2023/03/27 09:20:41;;;;;;;6.03;2.13;;;6.60;99.90;;;;;;4997729;28;20065;-82
2023/03/27 09:23:17;;;;;;;6.00;1.33;;;6.70;99.90;;;;;;4980522;28;20034;-83
2023/03/27 09:25:52;;;;;;;9.33;1.80;;;6.60;99.90;;;;;;4980782;28;20460;-82
2023/03/27 09:28:17;;;;;;;8.73;1.57;;;6.70;99.90;;;;;;4997930;28;20189;-80
2023/03/27 09:30:43;;;;;;;7.47;1.47;;;6.70;99.90;;;;;;4981526;28;20077;-82
2023/03/27 09:33:10;;;;;;;3.80;1.30;;;6.70;99.90;;;;;;4982124;28;20044;-82
2023/03/27 09:35:37;;;;;;;4.40;1.20;;;6.80;99.90;;;;;;5014414;28;20583;-82
2023/03/27 09:38:49;;;;;;;5.50;1.30;;;6.80;99.90;;;;;;4998350;28;20045;-82
2023/03/27 09:41:24;;;;;;;6.32;1.52;;;6.90;99.90;;;;;;4997759;28;20046;-82
2023/03/27 09:43:56;;;;;;;4.33;1.30;;;7.10;99.90;;;;;;4998401;28;20045;-81
2023/03/27 09:46:23;;;;;;;4.85;1.48;;;7.00;99.90;;;;;;4997457;28;20044;-82
2023/03/27 09:49:11;;;;;;;6.63;1.60;;;6.90;99.90;;;;;;5000605;28;20044;-82
2023/03/27 09:51:47;;;;;;;5.13;1.40;;;6.90;99.90;;;;;;4981783;28;20092;-81
2023/03/27 09:54:22;;;;;;;6.57;1.43;;;6.90;99.90;;;;;;4982119;28;20054;-81
2023/03/27 09:56:54;;;;;;;5.00;1.43;;;6.80;99.90;;;;;;4991865;28;20394;-83
2023/03/27 09:59:20;;;;;;;4.90;1.00;;;6.90;99.90;;;;;;5000432;28;20041;-81
2023/03/27 10:01:47;;;;;;;3.03;1.57;;;7.10;99.90;;;;;;4982920;28;20390;-81
2023/03/27 10:04:22;;;;;;;4.57;1.10;;;7.40;99.90;;;;;;4978439;28;20044;-81
2023/03/27 10:06:56;;;;;;;6.67;1.47;;;7.30;99.90;;;;;;4985908;28;20050;-81
2023/03/27 10:09:25;;;;;;;3.37;0.80;;;7.30;99.90;;;;;;4982669;28;20069;-81
2023/03/27 10:12:06;;;;;;;3.33;1.00;;;7.40;99.90;;;;;;4981073;28;20405;-82
2023/03/27 10:14:43;;;;;;;2.90;1.30;;;7.50;99.90;;;;;;4980156;28;20046;-83
2023/03/27 10:17:28;;;;;;;3.03;0.90;;;7.50;99.90;;;;;;4993936;28;20064;-82
2023/03/27 10:20:07;;;;;;;1.87;0.97;;;7.60;99.90;;;;;;4993369;28;20082;-81
2023/03/27 10:22:37;;;;;;;3.27;0.90;;;7.60;99.90;;;;;;4995762;28;20432;-82
2023/03/27 10:25:15;;;;;;;3.77;0.83;;;7.50;99.90;;;;;;4995684;28;20042;-83
2023/03/27 10:27:42;;;;;;;2.93;0.77;;;7.40;99.90;;;;;;4992649;28;20162;-81
2023/03/27 10:30:28;;;;;;;3.50;0.90;;;7.30;99.90;;;;;;4982797;28;20375;-82
2023/03/27 10:32:54;;;;;;;1.23;0.70;;;7.60;99.90;;;;;;4978658;28;20045;-81
2023/03/27 10:35:36;;;;;;;4.47;0.73;;;7.70;99.90;;;;;;5002072;28;20030;-82
2023/03/27 10:38:11;;;;;;;3.80;0.90;;;7.90;99.90;;;;;;4981490;28;20101;-82
2023/03/27 10:40:39;;;;;;;3.07;0.90;;;7.90;99.90;;;;;;4996781;28;20132;-83
2023/03/27 10:43:11;;;;;;;2.63;0.70;;;7.90;99.90;;;;;;4998246;28;20441;-83
2023/03/27 10:45:42;;;;;;;;;;;7.50;99.90;;;;;;4979004;28;20069;-82
2023/03/27 10:48:08;;;;;;;4.23;1.10;;;7.20;99.90;;;;;;4983390;28;20004;-81
2023/03/27 10:50:44;;;;;;;5.40;1.17;;;7.00;99.90;;;;;;4982973;28;20121;-82
2023/03/27 10:53:22;;;;;;;3.20;0.80;;;7.30;99.90;;;;;;4982155;28;20739;-82
2023/03/27 10:56:09;;;;;;;5.93;1.07;;;7.50;99.90;;;;;;5000552;28;20599;-84
2023/03/27 10:59:06;;;;;;;3.00;0.73;;;7.60;99.90;;;;;;4983359;28;20552;-83
2023/03/27 11:01:41;;;;;;;3.27;0.93;;;7.80;99.90;;;;;;4983364;28;20497;-83
2023/03/27 11:04:23;;;;;;;3.73;1.10;;;8.00;99.90;;;;;;4983348;28;20046;-83
2023/03/27 11:06:56;;;;;;;3.30;0.80;;;8.20;99.90;;;;;;4998655;28;20416;-84
2023/03/27 11:09:24;;;;;;;3.33;0.60;;;8.10;99.90;;;;;;4980553;28;20048;-83
2023/03/27 11:11:59;;;;;;;2.13;0.50;;;8.00;99.90;;;;;;4999510;28;20054;-84
2023/03/27 11:14:49;;;;;;;3.10;0.70;;;7.90;92.30;;;;;;4995897;28;20053;-82
2023/03/27 11:17:21;;;;;;;2.63;0.60;;;7.80;89.20;;;;;;4997792;28;20129;-83
2023/03/27 11:20:05;;;;;;;1.67;0.90;;;7.90;95.00;;;;;;4994859;28;20038;-82
2023/03/27 11:22:41;;;;;;;5.07;1.13;;;7.90;89.10;;;;;;4994838;28;20046;-83
2023/03/27 11:25:36;;;;;;;2.57;0.80;;;8.10;91.20;;;;;;4996931;28;20616;-83
2023/03/27 11:28:08;;;;;;;1.33;0.93;;;8.30;88.30;;;;;;4978867;28;20453;-85
2023/03/27 11:30:42;;;;;;;2.40;0.68;;;8.60;83.90;;;;;;4997940;28;20391;-83
2023/03/27 11:33:31;;;;;;;5.93;1.10;;;8.60;80.80;;;;;;4976509;28;20398;-83
2023/03/27 11:36:36;;;;;;;3.97;0.80;;;8.40;76.80;;;;;;4980286;28;20048;-81
2023/03/27 11:39:17;;;;;;;2.33;0.73;;;8.30;79.30;;;;;;4975760;28;20549;-84
2023/03/27 11:41:56;;;;;;;6.60;0.97;;;8.40;82.90;;;;;;4997616;28;20131;-83
2023/03/27 11:44:24;;;;;;;2.03;0.70;;;8.40;79.00;;;;;;4982008;28;20868;-81
2023/03/27 11:47:27;;;;;;;4.50;1.00;;;8.60;80.30;;;;;;4977711;28;20127;-84
2023/03/27 11:50:05;;;;;;;3.13;0.90;;;8.80;76.40;;;;;;4994879;28;20049;-83
2023/03/27 11:53:08;;;;;;;2.90;1.03;;;8.90;77.40;;;;;;4982746;28;20069;-81
2023/03/27 11:55:45;;;;;;;3.77;1.10;;;9.00;73.50;;;;;;4979370;28;20050;-83
2023/03/27 11:58:25;;;;;;;3.27;1.00;;;8.90;75.50;;;;;;4978710;28;20041;-82
2023/03/27 12:00:54;;;;;;;4.70;0.93;;;9.10;77.70;;;;;;4996158;28;20046;-83
2023/03/27 12:03:44;;;;;;;4.43;1.20;;;8.00;99.90;;;;;;4979345;28;20065;-81
2023/03/27 12:06:39;;;;;;;4.07;1.20;;;7.10;99.90;;;;;;4999590;28;20508;-83
2023/03/27 12:09:23;;;;;;;4.33;1.03;;;6.20;99.90;;;;;;4989516;28;20054;-83
2023/03/27 12:12:03;;;;;;;5.57;1.53;;;5.50;99.90;;;;;;4996073;28;20120;-83
2023/03/27 12:14:41;;;;;;;4.53;1.10;;;5.10;99.90;;;;;;4999328;28;20052;-81
2023/03/27 12:17:23;;;;;;;5.00;1.60;;;5.10;99.90;;;;;;4997452;28;20037;-82
2023/03/27 12:20:10;;;;;;;5.57;1.27;;;5.40;99.90;;;;;;4994407;28;20045;-83
2023/03/27 12:22:55;;;;;;;5.30;1.57;;;5.60;99.90;;;;;;4997695;28;20034;-82
2023/03/27 12:25:36;;;;;;;4.53;1.43;;;5.80;99.90;;;;;;4995265;28;20034;-82
2023/03/27 12:28:15;;;;;;;5.83;1.07;;;6.20;99.90;;;;;;4997006;28;20048;-81
2023/03/27 12:30:56;;;;;;;4.73;1.20;;;6.50;99.90;;;;;;4981335;28;20042;-82
2023/03/27 12:33:43;;;;;;;5.13;1.30;;;6.80;99.90;;;;;;4997878;28;20065;-83
2023/03/27 12:36:15;;;;;;;3.90;1.20;;;7.20;99.90;;;;;;5014773;28;20440;-83
2023/03/27 12:38:42;;;;;;;;;;;7.40;99.90;;;;;;4982039;28;20093;-83
2023/03/27 12:41:09;;;;;;;3.30;1.33;;;7.50;99.90;;;;;;4977264;28;19930;-83
2023/03/27 12:43:42;;;;;;;3.60;1.37;;;7.60;99.90;;;;;;4997727;28;20486;-83
2023/03/27 12:46:23;;;;;;;5.10;1.20;;;7.70;99.90;;;;;;4997130;28;20500;-82
2023/03/27 12:49:10;;;;;;;7.03;1.53;;;7.60;99.90;;;;;;5001180;28;20504;-82
2023/03/27 12:52:04;;;;;;;6.53;1.50;;;8.00;99.90;;;;;;4999439;28;20087;-82
2023/03/27 12:54:35;;;;;;;8.20;1.87;;;8.00;98.70;;;;;;4999626;28;20038;-82
2023/03/27 12:57:23;;;;;;;4.73;1.17;;;7.80;93.80;;;;;;4986378;28;20410;-82
2023/03/27 12:59:57;;;;;;;4.10;1.07;;;7.90;99.90;;;;;;4982542;28;20042;-84
2023/03/27 13:02:35;;;;;;;3.93;1.10;;;8.00;99.90;;;;;;4978495;28;20070;-83
2023/03/27 13:05:04;;;;;;;5.53;1.20;;;7.80;99.90;;;;;;5006602;28;20038;-83
2023/03/27 13:07:49;;;;;;;3.90;1.37;;;7.50;99.90;;;;;;4987240;28;20165;-85
2023/03/27 13:10:28;;;;;;;5.63;1.20;;;7.40;99.90;;;;;;4982866;28;20037;-82
2023/03/27 13:13:15;;;;;;;5.27;1.50;;;7.40;99.90;;;;;;4996743;28;20054;-84
2023/03/27 13:16:13;;;;;;;4.80;1.73;;;7.30;99.90;;;;;;4981116;28;20133;-82
2023/03/27 13:19:07;;;;;;;4.37;1.00;;;6.80;99.90;;;;;;4982163;28;20630;-82
2023/03/27 13:22:07;;;;;;;5.93;1.30;;;6.10;99.90;;;;;;4980771;28;20147;-83
2023/03/27 13:24:47;;;;;;;5.63;1.40;;;5.80;99.90;;;;;;4980689;28;20038;-83
2023/03/27 13:27:16;;;;;;;5.73;1.20;;;5.90;99.90;;;;;;4984470;28;20044;-82
2023/03/27 13:29:48;;;;;;;5.37;1.27;;;6.20;99.90;;;;;;4982399;28;20371;-81
2023/03/27 13:32:33;;;;;;;;;;;6.50;99.90;;;;;;4982530;28;20100;-81
2023/03/27 13:35:22;;;;;;;2.80;1.00;;;6.70;99.90;;;;;;4998858;28;20403;-83
2023/03/27 13:37:48;;;;;;;5.43;1.20;;;7.00;99.90;;;;;;5002665;28;20109;-81
2023/03/27 13:40:25;;;;;;;6.00;1.50;;;7.20;99.90;;;;;;4996075;28;20108;-81